»·PEaware :: SWA205 KSNA-KLAS

SWA205 :: KSNA-KLAS

FLIGHT INFORMATION

Flight Status: Arrived
Operator:
Southwest Airlines
More flights by this operator :: More flights under this callsign
Pilot: Dave P. (45)
Aircraft: BOEING 737-700
(B737)
More flights by this aircraft type
Origin: KSNA John Wayne-Orange Co
United States
Destination: KLAS McCarran Intl
United States
More flights between these airports :: More routes between these airports
Route: +FINZZ1 MISEN KEPEC6
File this flight plan on PilotEdge
Remarks: PBN / A1B1C1D1S1S2 DOF / 171126 REG / N737PM OPR / SWA PER / C RMK / TCAS SIMBRIEF
Altitude:
(Current/Filed)
29,000ft
Speed:
(Current/Filed)
447kts
Departed: 26-Nov-17 08:52 AM
Arrived: 26-Nov-17 09:38 AM
Distance/Time
Traveled:
197nm/0:46
Distance/Time
To Go:
Arrived

Flight Plot

Page will automatically refresh every two minutes.

Flight plan parsing failed; only flown route is shown


Map Options




Map Legend


Flown Route
Filed Route
Departure Airport
Arrival Airport
Navaid (VOR, NDB)
Fix

Horizontal Profiles

Position Reports

Time Latitude Longitude Heading Altitude Ground
Speed
26-Nov-17 08:35 33.676510 -117.863692 119 64ft 0kts
26-Nov-17 08:36 33.676510 -117.863692 119 63ft 0kts
26-Nov-17 08:37 33.676510 -117.863692 119 63ft 0kts
26-Nov-17 08:38 33.676510 -117.863692 119 63ft 0kts
26-Nov-17 08:39 33.676510 -117.863692 119 63ft 0kts
26-Nov-17 08:40 33.676510 -117.863692 119 63ft 0kts
26-Nov-17 08:41 33.676510 -117.863692 119 63ft 0kts
26-Nov-17 08:42 33.676510 -117.863692 119 63ft 0kts
26-Nov-17 08:43 33.676510 -117.863692 119 63ft 0kts
26-Nov-17 08:44 33.676510 -117.863692 119 63ft 0kts
26-Nov-17 08:45 33.676510 -117.863692 119 63ft 0kts
26-Nov-17 08:46 33.676510 -117.863692 119 63ft 0kts
26-Nov-17 08:47 33.676510 -117.863692 119 63ft 0kts
26-Nov-17 08:48 33.676510 -117.863692 119 63ft 0kts
26-Nov-17 08:49 33.676510 -117.863692 119 63ft 0kts
26-Nov-17 08:50 33.676514 -117.864431 55 63ft 2kts
26-Nov-17 08:51 33.676398 -117.864583 40 63ft 0kts
26-Nov-17 08:52 33.676398 -117.864583 40 63ft 0kts
26-Nov-17 08:53 33.676439 -117.864560 17 63ft 2kts
26-Nov-17 08:54 33.679401 -117.862961 26 63ft 12kts
26-Nov-17 08:55 33.680621 -117.863131 297 63ft 0kts
26-Nov-17 08:56 33.681332 -117.865271 207 63ft 4kts
26-Nov-17 08:57 33.657650 -117.879972 208 943ft 153kts
26-Nov-17 08:58 33.610506 -117.893586 187 2897ft 213kts
26-Nov-17 08:59 33.548087 -117.924186 221 5371ft 270kts
26-Nov-17 09:00 33.499134 -117.993379 255 7950ft 283kts
26-Nov-17 09:01 33.535697 -118.073775 313 10554ft 299kts
26-Nov-17 09:02 33.614251 -118.123263 2 12818ft 364kts
26-Nov-17 09:03 33.706845 -118.065956 28 15758ft 389kts
26-Nov-17 09:04 33.805361 -118.003845 24 18598ft 408kts
26-Nov-17 09:05 33.908702 -117.941627 29 21363ft 425kts
26-Nov-17 09:06 34.008121 -117.851915 36 22957ft 459kts
26-Nov-17 09:07 34.106884 -117.752458 47 23207ft 462kts
26-Nov-17 09:08 34.187869 -117.632139 50 23203ft 463kts
26-Nov-17 09:09 34.269784 -117.509567 50 24925ft 474kts
26-Nov-17 09:10 34.334908 -117.412253 50 26315ft 484kts
26-Nov-17 09:11 34.369375 -117.360963 50 26968ft 489kts
26-Nov-17 09:12 34.455236 -117.232163 50 28891ft 491kts
26-Nov-17 09:13 34.541338 -117.102313 50 29260ft 490kts
26-Nov-17 09:14 34.628312 -116.975440 49 29271ft 489kts
26-Nov-17 09:15 34.715472 -116.848646 49 29246ft 489kts
26-Nov-17 09:16 34.802385 -116.720984 49 29218ft 486kts
26-Nov-17 09:17 34.895205 -116.603878 36 28887ft 475kts
26-Nov-17 09:18 34.998663 -116.504777 36 25714ft 480kts
26-Nov-17 09:19 35.099745 -116.406140 38 24399ft 464kts
26-Nov-17 09:20 35.191452 -116.293913 45 22543ft 463kts
26-Nov-17 09:21 35.279626 -116.181687 45 20842ft 453kts
26-Nov-17 09:22 35.366596 -116.071861 45 19171ft 444kts
26-Nov-17 09:23 35.451606 -115.964655 45 17459ft 435kts
26-Nov-17 09:24 35.534023 -115.860483 45 15725ft 418kts
26-Nov-17 09:25 35.612626 -115.760311 45 14211ft 390kts
26-Nov-17 09:26 35.684671 -115.668343 46 13051ft 353kts
26-Nov-17 09:27 35.751229 -115.587160 30 12990ft 333kts
26-Nov-17 09:28 35.840843 -115.569976 357 13011ft 327kts
26-Nov-17 09:29 35.931822 -115.565727 358 13011ft 327kts
26-Nov-17 09:30 36.000065 -115.500561 78 12299ft 335kts
26-Nov-17 09:31 36.024187 -115.394237 73 11189ft 304kts
26-Nov-17 09:32 36.025720 -115.295735 98 10073ft 282kts
26-Nov-17 09:33 36.018422 -115.200534 97 8964ft 274kts
26-Nov-17 09:34 36.012193 -115.108783 97 8218ft 253kts
26-Nov-17 09:35 36.007218 -115.027490 96 7647ft 219kts
26-Nov-17 09:36 36.002733 -114.954513 96 6304ft 210kts
26-Nov-17 09:37 36.015950 -114.891799 16 4878ft 207kts
26-Nov-17 09:38 36.065847 -114.905735 297 4286ft 199kts
26-Nov-17 09:39 36.073742 -114.975687 270 4309ft 209kts
26-Nov-17 09:40 36.073727 -115.042394 268 3494ft 179kts
26-Nov-17 09:41 36.073681 -115.097177 268 2652ft 148kts
26-Nov-17 09:42 36.073653 -115.140439 269 2189ft 54kts
26-Nov-17 09:43 36.074808 -115.145999 295 2189ft 10kts
26-Nov-17 09:44 36.077265 -115.146540 355 2189ft 1kts
26-Nov-17 09:45 36.079601 -115.147551 60 2189ft 8kts
26-Nov-17 09:46 36.079818 -115.147026 62 2189ft 0kts
26-Nov-17 09:47 36.079818 -115.147026 62 2189ft 0kts
26-Nov-17 09:48 36.079818 -115.147026 62 2189ft 0kts

Navigation Log

Ident Type
Flight plan parsing failed, navigation log unavailable